Cyril, Oklahoma
Current Conditions -  °F | °C
As of 4:55 AM on Sunday 23 Nov 2014 (Local Time) from KCHK Reporting Station
Overcast Overcast  
Wind Chill: 12°   Ceiling: 600
Heat Index: 12°   Visibility: 10mi
Dew Point: 12°   Wind: 8mph
Humidity: 100%   Direction: 140°SE
Pressure: 29.52"   Gusts: NA
Location:  34.9°N, 98.2°W
Report Text: KCHK 231055Z AUTO 14007KT 10SM OVC006 12/12 A2952 RMK AO2
Loading
Personal Weather Stations






























Interactive Weather Map New forecast layout! Learn more

10-Day Weather Forecast

Advertisements
Track Severe Weather on mobile